Time;durP1;ratioP1;P1;durP2;ratioP2;P2;SDS_P1;SDS_P2;PMS_P1;PMS_P2;Temp;Humidity;BMP_temperature;BMP_pressure;BME280_temperature;BME280_humidity;BME280_pressure;Samples;Min_cycle;Max_cycle;Signal;HPM_P1;HPM_P2
2022/07/18 00:01:54;;;;;;;3.60;1.25;;;;;;;16.98;52.98;96964.63;5046973;28;20112;-77
2022/07/18 00:04:19;;;;;;;5.23;1.57;;;;;;;16.94;52.96;96958.03;5045780;28;20126;-77
2022/07/18 00:06:45;;;;;;;2.43;1.13;;;;;;;16.87;53.28;96963.25;5037549;28;20108;-77
2022/07/18 00:09:11;;;;;;;4.50;1.30;;;;;;;16.78;54.62;96966.97;5064163;28;20489;-77
2022/07/18 00:11:36;;;;;;;2.60;1.53;;;;;;;16.84;54.76;96962.78;5069291;28;20544;-77
2022/07/18 00:14:02;;;;;;;2.65;1.23;;;;;;;16.64;57.13;96963.25;5073740;28;20028;-77
2022/07/18 00:16:28;;;;;;;4.70;1.50;;;;;;;16.54;58.21;96962.66;5052097;28;20032;-76
2022/07/18 00:18:55;;;;;;;3.47;1.33;;;;;;;16.52;59.51;96964.66;5052502;28;20041;-77
2022/07/18 00:21:21;;;;;;;5.10;1.50;;;;;;;16.49;60.25;96973.00;5052660;28;20036;-77
2022/07/18 00:23:47;;;;;;;4.30;1.93;;;;;;;16.63;58.94;96963.41;5051679;28;20040;-77
2022/07/18 00:26:12;;;;;;;4.17;1.53;;;;;;;16.54;59.41;96972.47;5076329;28;20028;-77
2022/07/18 00:28:38;;;;;;;5.53;1.30;;;;;;;16.56;59.82;96967.78;5080551;28;20085;-77
2022/07/18 00:31:04;;;;;;;5.40;1.40;;;;;;;16.60;59.74;96972.59;5081020;28;20089;-77
2022/07/18 00:33:30;;;;;;;4.37;1.20;;;;;;;16.46;60.09;96962.72;5056050;28;20040;-77
2022/07/18 00:35:55;;;;;;;4.50;1.40;;;;;;;16.39;60.47;96961.78;5049401;28;20044;-77
2022/07/18 00:38:21;;;;;;;2.70;1.43;;;;;;;16.46;60.55;96966.22;5057973;28;20028;-76
2022/07/18 00:40:47;;;;;;;3.40;1.53;;;;;;;16.45;62.48;96969.03;5054189;28;20041;-76
2022/07/18 00:43:14;;;;;;;3.30;1.50;;;;;;;16.44;61.49;96970.88;5057838;28;20031;-77
2022/07/18 00:45:45;;;;;;;4.67;1.57;;;;;;;16.24;63.34;96970.53;5059604;28;20043;-77
2022/07/18 00:48:11;;;;;;;5.10;1.63;;;;;;;16.23;63.08;96974.19;5053897;28;20535;-77
2022/07/18 00:50:37;;;;;;;4.43;1.30;;;;;;;16.17;62.88;96972.22;5066151;28;20062;-77
2022/07/18 00:53:04;;;;;;;3.37;1.43;;;;;;;16.18;62.50;96968.56;5077130;28;20020;-77
2022/07/18 00:55:30;;;;;;;5.17;1.60;;;;;;;16.15;61.85;96963.63;5041256;28;20050;-77
2022/07/18 00:57:57;;;;;;;4.00;1.40;;;;;;;16.06;65.15;96972.63;5058799;28;20028;-77
2022/07/18 01:03:07;;;;;;;2.47;1.40;;;;;;;15.92;65.35;96976.03;5044233;28;20039;-77
2022/07/18 01:05:33;;;;;;;4.57;1.30;;;;;;;15.67;67.23;96970.03;5038933;28;20029;-77
2022/07/18 01:07:58;;;;;;;3.30;1.53;;;;;;;15.77;67.22;96968.81;5056328;28;20504;-77
2022/07/18 01:10:24;;;;;;;3.43;1.37;;;;;;;15.83;65.97;96967.31;5040249;28;20124;-77
2022/07/18 01:12:50;;;;;;;3.33;1.20;;;;;;;15.70;65.48;96970.50;5049564;28;20057;-78
2022/07/18 01:15:16;;;;;;;4.20;1.50;;;;;;;15.66;64.49;96963.91;5060034;28;20032;-77
2022/07/18 01:17:42;;;;;;;2.63;1.37;;;;;;;15.68;65.40;96964.56;5071225;28;20512;-77
2022/07/18 01:20:08;;;;;;;4.33;1.47;;;;;;;15.51;68.46;96965.59;5052788;28;20069;-77
2022/07/18 01:22:34;;;;;;;3.73;1.50;;;;;;;15.48;67.99;96977.34;5068913;28;20044;-77
2022/07/18 01:24:59;;;;;;;8.23;2.03;;;;;;;15.45;67.37;96964.44;5036864;28;20027;-77
2022/07/18 01:27:25;;;;;;;3.27;1.60;;;;;;;15.42;67.02;96966.63;5073795;28;20056;-77
2022/07/18 01:29:52;;;;;;;3.93;1.40;;;;;;;15.40;66.78;96972.09;5056502;28;20107;-76
2022/07/18 01:32:20;;;;;;;3.30;1.30;;;;;;;15.41;63.64;96967.63;5038058;28;20034;-76
2022/07/18 01:34:50;;;;;;;3.80;1.87;;;;;;;15.41;62.77;96963.16;5069017;28;20040;-77
2022/07/18 01:37:16;;;;;;;2.67;1.20;;;;;;;15.41;62.20;96971.09;5026907;28;20063;-76
2022/07/18 01:39:43;;;;;;;1.73;1.00;;;;;;;15.40;60.98;96966.81;5052500;28;20033;-77
2022/07/18 01:42:10;;;;;;;2.80;1.13;;;;;;;15.46;60.42;96966.13;5061464;28;20461;-77
2022/07/18 01:44:38;;;;;;;4.90;1.67;;;;;;;15.44;59.77;96969.94;5054585;28;20059;-77
2022/07/18 01:47:05;;;;;;;2.77;1.30;;;;;;;15.37;60.17;96974.28;5055677;28;20036;-77
2022/07/18 01:49:32;;;;;;;2.53;1.27;;;;;;;15.11;61.09;96977.97;5067676;28;20040;-76
2022/07/18 01:51:59;;;;;;;3.37;1.53;;;;;;;15.07;61.81;96968.72;5066644;28;20044;-76
2022/07/18 01:54:31;;;;;;;2.33;1.10;;;;;;;14.98;61.24;96965.25;5054131;28;20035;-77
2022/07/18 01:56:58;;;;;;;4.13;1.87;;;;;;;14.94;61.23;96966.59;5044173;28;20049;-77
2022/07/18 01:59:24;;;;;;;2.83;1.20;;;;;;;14.93;61.59;96967.59;5062476;28;20118;-76
2022/07/18 02:01:51;;;;;;;4.57;1.60;;;;;;;15.01;60.87;96964.09;5072994;28;20037;-77
2022/07/18 02:04:17;;;;;;;5.83;1.37;;;;;;;15.05;62.18;96973.34;5065455;28;20104;-77
2022/07/18 02:06:42;;;;;;;3.70;1.73;;;;;;;15.10;61.47;96971.03;5077105;28;20028;-77
2022/07/18 02:09:09;;;;;;;4.37;1.47;;;;;;;14.96;62.95;96961.97;5038977;28;20595;-77
2022/07/18 02:11:35;;;;;;;8.47;1.40;;;;;;;14.91;62.35;96966.94;5062293;28;20033;-77
2022/07/18 02:14:02;;;;;;;3.63;1.20;;;;;;;14.71;64.01;96969.09;5039378;28;20490;-75
2022/07/18 02:16:28;;;;;;;3.57;1.40;;;;;;;14.77;64.98;96965.78;5039905;28;20036;-77
2022/07/18 02:18:55;;;;;;;2.47;1.03;;;;;;;14.84;64.62;96964.13;5053020;28;20036;-77
2022/07/18 02:21:21;;;;;;;2.80;1.40;;;;;;;14.73;65.02;96961.84;5079956;28;20039;-76
2022/07/18 02:23:47;;;;;;;3.10;1.30;;;;;;;14.76;65.84;96966.78;5054305;28;20149;-77
2022/07/18 02:26:13;;;;;;;3.60;1.70;;;;;;;14.80;66.90;96962.81;5044091;28;20031;-77
2022/07/18 02:28:39;;;;;;;7.03;1.17;;;;;;;14.74;67.63;96965.31;5067303;28;20039;-77
2022/07/18 02:31:06;;;;;;;2.63;1.30;;;;;;;14.85;66.99;96963.16;5082699;28;20033;-77
2022/07/18 02:33:32;;;;;;;2.83;1.23;;;;;;;14.86;67.39;96963.97;5082666;28;20036;-76
2022/07/18 02:35:58;;;;;;;3.87;1.30;;;;;;;14.79;66.98;96965.63;5059896;28;21355;-77
2022/07/18 02:38:24;;;;;;;4.23;1.30;;;;;;;14.79;66.79;96966.47;5068766;28;20157;-77
2022/07/18 02:40:50;;;;;;;3.57;1.30;;;;;;;14.64;68.80;96962.00;5090346;28;20032;-76
2022/07/18 02:43:15;;;;;;;4.37;1.37;;;;;;;14.61;68.83;96958.69;5093676;28;20032;-78
2022/07/18 02:45:42;;;;;;;4.57;1.60;;;;;;;14.65;67.64;96961.81;5085003;28;20036;-78
2022/07/18 02:48:08;;;;;;;3.73;1.67;;;;;;;14.53;66.90;96960.53;5045837;28;20062;-78
2022/07/18 02:50:34;;;;;;;3.43;1.47;;;;;;;14.53;65.61;96964.00;5069830;28;20043;-78
2022/07/18 02:52:59;;;;;;;2.40;1.30;;;;;;;14.50;65.69;96968.75;5036663;28;20028;-78
2022/07/18 02:55:25;;;;;;;3.10;1.43;;;;;;;14.46;65.61;96960.31;5060910;28;20089;-78
2022/07/18 02:57:51;;;;;;;3.23;1.33;;;;;;;14.44;66.09;96977.34;5075783;28;20120;-78
2022/07/18 03:00:17;;;;;;;2.97;1.20;;;;;;;14.49;65.21;96975.88;5053309;28;20040;-78
2022/07/18 03:02:44;;;;;;;4.20;1.60;;;;;;;14.52;64.87;96974.72;5075320;28;20020;-78
2022/07/18 03:05:11;;;;;;;2.87;1.30;;;;;;;14.44;65.08;96974.72;5054534;28;20423;-78
2022/07/18 03:07:36;;;;;;;2.43;1.40;;;;;;;14.33;65.35;96976.69;5042700;28;20024;-78
2022/07/18 03:10:04;;;;;;;2.17;0.90;;;;;;;14.34;65.77;96973.03;5055853;28;20036;-77
2022/07/18 03:12:29;;;;;;;5.33;1.50;;;;;;;14.33;65.54;96971.41;5072584;28;20028;-76
2022/07/18 03:14:55;;;;;;;3.10;1.30;;;;;;;14.33;64.83;96976.69;5038248;28;20048;-77
2022/07/18 03:17:21;;;;;;;1.97;1.20;;;;;;;14.28;64.61;96978.16;5038271;28;20051;-78
2022/07/18 03:19:46;;;;;;;3.80;1.30;;;;;;;14.35;64.63;96982.66;5057806;28;20044;-78
2022/07/18 03:22:12;;;;;;;3.50;1.47;;;;;;;14.26;64.81;96986.28;5040372;28;20029;-76
2022/07/18 03:24:37;;;;;;;3.30;1.40;;;;;;;14.27;64.22;96985.28;5055715;28;20035;-78
2022/07/18 03:27:03;;;;;;;3.70;1.10;;;;;;;14.21;64.25;96980.63;5059544;28;20058;-78
2022/07/18 03:29:29;;;;;;;3.50;1.33;;;;;;;14.21;64.38;96985.09;5036186;28;20051;-77
2022/07/18 03:31:54;;;;;;;3.33;1.33;;;;;;;14.15;64.74;96989.22;5069707;28;20055;-78
2022/07/18 03:34:20;;;;;;;3.03;1.00;;;;;;;14.19;64.60;96984.47;5042218;28;20044;-77
2022/07/18 03:36:46;;;;;;;2.47;1.00;;;;;;;14.14;65.33;96987.56;5055886;28;20059;-76
2022/07/18 03:39:12;;;;;;;2.50;1.40;;;;;;;14.05;66.22;96991.19;5047633;28;20029;-76
2022/07/18 03:41:39;;;;;;;4.13;1.50;;;;;;;14.09;66.58;96981.97;5059026;28;20599;-78
2022/07/18 03:44:05;;;;;;;5.17;1.40;;;;;;;13.97;67.54;96981.44;5054228;28;20025;-79
2022/07/18 03:46:32;;;;;;;2.33;1.20;;;;;;;13.93;67.64;96979.28;5034902;28;20060;-79
2022/07/18 03:48:58;;;;;;;3.57;1.50;;;;;;;13.82;68.96;96981.25;5056682;28;20063;-79
2022/07/18 03:51:24;;;;;;;5.60;1.40;;;;;;;13.80;70.15;96982.38;5051521;28;20028;-78
2022/07/18 03:53:50;;;;;;;3.70;1.47;;;;;;;13.73;70.78;96990.13;5071607;28;20106;-79
2022/07/18 03:56:16;;;;;;;2.63;1.20;;;;;;;13.80;70.46;96991.13;5049236;28;20107;-78
2022/07/18 03:58:42;;;;;;;4.07;1.23;;;;;;;13.69;72.56;96986.16;5076105;28;20037;-79
2022/07/18 04:01:08;;;;;;;4.33;1.10;;;;;;;13.80;71.94;96985.84;5038503;28;20052;-79
2022/07/18 04:03:33;;;;;;;3.77;2.40;;;;;;;13.84;71.47;96981.88;5046578;28;20067;-78
2022/07/18 04:05:59;;;;;;;4.17;1.47;;;;;;;13.76;72.59;96987.16;5042581;28;20035;-78
2022/07/18 04:08:25;;;;;;;4.23;1.40;;;;;;;13.84;71.78;96987.19;5040384;28;20393;-76
2022/07/18 04:10:51;;;;;;;3.53;1.27;;;;;;;13.93;70.02;96981.94;5035752;28;20247;-79
2022/07/18 04:13:17;;;;;;;2.87;1.20;;;;;;;14.04;70.17;96981.59;5054171;28;20042;-78
2022/07/18 04:15:43;;;;;;;5.27;2.53;;;;;;;14.01;70.85;96981.94;5044965;28;20067;-78
2022/07/18 04:18:09;;;;;;;3.63;1.93;;;;;;;14.14;70.14;96980.47;5049145;28;20029;-79
2022/07/18 04:20:36;;;;;;;4.93;1.53;;;;;;;14.07;71.97;96981.28;5051678;28;20449;-78
2022/07/18 04:23:04;;;;;;;3.23;1.30;;;;;;;14.03;72.98;96983.44;5055802;28;20040;-77
2022/07/18 04:25:35;;;;;;;3.10;1.23;;;;;;;14.01;73.01;96977.47;5052044;28;20064;-77
2022/07/18 04:28:01;;;;;;;4.20;1.60;;;;;;;14.05;72.43;96985.91;5069102;28;20033;-78
2022/07/18 04:30:28;;;;;;;3.83;1.67;;;;;;;13.99;72.78;96983.94;5042855;28;20060;-78
2022/07/18 04:32:54;;;;;;;3.37;1.47;;;;;;;13.99;71.89;96983.94;5055606;28;20032;-78
2022/07/18 04:35:22;;;;;;;3.23;1.10;;;;;;;14.16;70.24;96977.66;5071019;28;20109;-76
2022/07/18 04:37:49;;;;;;;4.33;1.37;;;;;;;14.26;69.81;96983.63;5055668;28;20032;-77
2022/07/18 04:40:15;;;;;;;5.77;2.20;;;;;;;14.42;67.02;96980.19;5052359;28;20910;-78
2022/07/18 04:42:41;;;;;;;3.17;1.43;;;;;;;14.47;62.85;96977.84;5050482;28;20033;-78
2022/07/18 04:45:07;;;;;;;3.03;1.20;;;;;;;14.54;62.44;96970.94;5054436;28;20094;-78
2022/07/18 04:47:33;;;;;;;3.23;1.30;;;;;;;14.61;62.85;96974.56;5044347;28;20036;-75
2022/07/18 04:49:59;;;;;;;2.93;1.30;;;;;;;14.70;62.47;96970.09;5052036;28;20117;-77
2022/07/18 04:52:25;;;;;;;4.13;1.73;;;;;;;14.72;63.69;96973.44;5051827;28;20028;-78
2022/07/18 04:54:50;;;;;;;5.47;1.70;;;;;;;14.73;61.08;96974.25;5070220;28;20032;-78
2022/07/18 04:57:17;;;;;;;4.33;1.43;;;;;;;14.71;62.26;96968.28;5051154;28;20119;-78
2022/07/18 04:59:43;;;;;;;5.23;1.50;;;;;;;14.82;61.87;96973.22;5058332;28;20521;-78
2022/07/18 05:02:09;;;;;;;6.57;1.47;;;;;;;14.89;60.60;96971.59;5054713;28;20242;-78
2022/07/18 05:04:36;;;;;;;4.13;1.40;;;;;;;15.06;62.01;96967.06;5048107;28;20476;-78
2022/07/18 05:07:03;;;;;;;5.17;2.13;;;;;;;15.20;59.85;96976.16;5041807;28;20044;-78
2022/07/18 05:09:29;;;;;;;8.20;1.67;;;;;;;15.32;58.75;96972.97;5036701;28;20111;-78
2022/07/18 05:11:55;;;;;;;3.90;1.90;;;;;;;15.53;57.39;96968.91;5067464;28;20052;-76
2022/07/18 05:14:21;;;;;;;7.27;2.47;;;;;;;15.61;61.28;96965.38;5052304;28;20687;-78
2022/07/18 05:16:47;;;;;;;5.83;1.73;;;;;;;15.86;60.55;96961.66;5051127;28;20044;-76
2022/07/18 05:19:15;;;;;;;2.97;1.53;;;;;;;15.94;59.06;96966.09;5049323;28;20037;-78
2022/07/18 05:21:41;;;;;;;6.10;1.50;;;;;;;16.08;60.34;96962.66;5055516;28;20040;-77
2022/07/18 05:24:07;;;;;;;3.80;1.67;;;;;;;16.20;60.05;96966.56;5047949;28;20033;-78
2022/07/18 05:26:33;;;;;;;4.77;1.90;;;;;;;16.45;58.77;96961.91;5049042;28;20070;-75
2022/07/18 05:28:59;;;;;;;4.20;1.63;;;;;;;16.62;58.63;96959.13;5056596;28;20033;-74
2022/07/18 05:31:25;;;;;;;2.90;1.47;;;;;;;16.93;57.29;96962.53;5050190;28;20127;-76
2022/07/18 05:33:51;;;;;;;4.23;1.60;;;;;;;17.12;57.51;96963.81;5053028;28;20064;-76
2022/07/18 05:36:18;;;;;;;5.27;1.63;;;;;;;17.09;56.52;96964.16;5074052;28;20060;-77
2022/07/18 05:38:43;;;;;;;4.37;1.60;;;;;;;17.13;56.63;96960.13;5034810;28;20425;-77
2022/07/18 05:41:09;;;;;;;5.03;1.53;;;;;;;17.41;54.69;96965.66;5054529;28;20036;-76
2022/07/18 05:43:35;;;;;;;4.67;2.03;;;;;;;17.57;53.17;96964.63;5057287;28;20117;-75
2022/07/18 05:46:00;;;;;;;5.83;1.70;;;;;;;17.86;53.78;96968.28;5037574;28;20041;-74
2022/07/18 05:48:26;;;;;;;5.80;1.73;;;;;;;18.25;54.19;96972.41;5030346;28;20032;-76
2022/07/18 05:50:52;;;;;;;4.80;1.87;;;;;;;18.29;56.31;96963.00;5046321;28;20040;-76
2022/07/18 05:53:18;;;;;;;8.20;2.00;;;;;;;18.64;56.97;96965.78;5066942;28;20029;-76
2022/07/18 05:55:44;;;;;;;5.80;1.83;;;;;;;18.73;55.69;96960.16;5041798;28;20149;-75
2022/07/18 05:58:09;;;;;;;5.40;1.70;;;;;;;19.11;54.25;96964.31;5050406;28;20401;-74
2022/07/18 06:00:35;;;;;;;4.78;1.40;;;;;;;19.04;54.65;96953.59;5051781;28;20100;-77
2022/07/18 06:03:01;;;;;;;4.03;1.73;;;;;;;19.25;55.98;96963.41;5039583;28;20733;-76
2022/07/18 06:05:27;;;;;;;3.60;1.60;;;;;;;19.77;52.88;96954.84;5050293;28;20052;-77
2022/07/18 06:07:54;;;;;;;3.78;1.75;;;;;;;19.52;56.12;96953.69;5066172;28;20481;-77
2022/07/18 06:10:22;;;;;;;6.55;2.88;;;;;;;20.13;53.24;96950.25;5038468;28;20028;-76
2022/07/18 06:12:49;;;;;;;4.22;1.63;;;;;;;20.31;52.12;96952.34;5035530;28;20040;-76
2022/07/18 06:15:16;;;;;;;3.20;1.73;;;;;;;20.60;50.16;96953.84;5036056;28;20040;-77
2022/07/18 06:17:42;;;;;;;4.00;1.70;;;;;;;20.90;49.91;96949.72;5052985;28;20043;-77
2022/07/18 06:20:08;;;;;;;5.30;2.25;;;;;;;20.91;49.58;96950.53;5062538;28;20028;-77
2022/07/18 06:22:35;;;;;;;3.50;1.73;;;;;;;20.65;49.63;96946.03;5041416;28;20067;-77
2022/07/18 06:25:02;;;;;;;4.63;1.90;;;;;;;21.26;48.16;96947.59;5025688;28;21122;-77
2022/07/18 06:27:28;;;;;;;5.47;1.92;;;;;;;21.73;47.90;96948.31;5052143;28;20024;-77
2022/07/18 06:29:53;;;;;;;7.38;2.03;;;;;;;21.77;49.04;96947.69;5054009;28;20060;-76
2022/07/18 06:32:19;;;;;;;3.70;1.55;;;;;;;22.46;46.87;96946.09;5050131;28;21122;-76
2022/07/18 06:34:45;;;;;;;7.30;2.13;;;;;;;22.17;48.10;96936.00;5051886;28;20029;-76
2022/07/18 06:37:11;;;;;;;4.18;1.52;;;;;;;21.82;51.03;96945.19;5062811;28;20583;-77
2022/07/18 06:39:36;;;;;;;4.50;1.70;;;;;;;22.46;48.11;96940.72;5037680;28;20108;-76
2022/07/18 06:42:02;;;;;;;6.35;1.88;;;;;;;22.74;48.09;96942.19;5035110;28;20032;-76
2022/07/18 06:44:28;;;;;;;6.22;1.80;;;;;;;23.19;45.46;96940.13;5034369;28;20055;-76
2022/07/18 06:46:54;;;;;;;5.90;1.70;;;;;;;23.66;44.19;96937.75;5047976;28;20036;-76
2022/07/18 06:49:20;;;;;;;3.40;1.77;;;;;;;23.72;43.55;96931.53;5050309;28;20024;-75
2022/07/18 06:51:45;;;;;;;5.28;1.65;;;;;;;24.38;40.86;96932.50;5029060;28;20107;-77
2022/07/18 06:54:11;;;;;;;3.65;1.80;;;;;;;24.72;39.03;96926.63;5064664;28;20032;-76
2022/07/18 06:56:37;;;;;;;4.90;1.85;;;;;;;25.02;40.57;96934.63;5037303;28;20032;-77
2022/07/18 06:59:03;;;;;;;5.18;1.80;;;;;;;25.28;40.15;96931.44;5050492;28;20441;-77
2022/07/18 07:01:28;;;;;;;6.07;1.70;;;;;;;25.00;39.91;96924.06;5051461;28;20033;-77
2022/07/18 07:03:54;;;;;;;7.60;1.92;;;;;;;25.88;39.13;96924.91;5047849;28;20402;-77
2022/07/18 07:06:20;;;;;;;8.73;2.78;;;;;;;26.09;39.04;96926.16;5063561;28;20028;-77
2022/07/18 07:08:45;;;;;;;6.07;1.88;;;;;;;25.96;39.17;96927.25;5026256;28;20120;-77
2022/07/18 07:11:11;;;;;;;8.45;2.10;;;;;;;26.19;38.14;96933.56;5033354;28;20024;-77
2022/07/18 07:13:37;;;;;;;6.95;1.77;;;;;;;25.99;37.78;96931.31;5046458;28;20120;-76
2022/07/18 07:16:04;;;;;;;5.05;1.88;;;;;;;26.36;36.35;96926.38;5062384;28;20037;-77
2022/07/18 07:18:30;;;;;;;7.53;2.40;;;;;;;26.75;35.19;96935.41;5067685;28;20036;-77
2022/07/18 07:20:55;;;;;;;7.32;1.98;;;;;;;27.39;34.12;96926.94;5061586;28;20048;-77
2022/07/18 07:23:21;;;;;;;4.20;1.83;;;;;;;28.14;33.48;96921.94;5039530;28;20032;-77
2022/07/18 07:25:47;;;;;;;5.15;2.00;;;;;;;28.19;33.53;96924.69;5044025;28;20024;-77
2022/07/18 07:28:12;;;;;;;5.15;1.95;;;;;;;28.62;32.05;96921.06;5046741;28;20033;-77
2022/07/18 07:30:38;;;;;;;5.55;1.65;;;;;;;28.35;32.45;96921.06;5055562;28;20056;-78
2022/07/18 07:33:07;;;;;;;5.22;1.67;;;;;;;29.18;31.52;96926.13;5067730;28;20054;-74
2022/07/18 07:35:32;;;;;;;7.88;2.15;;;;;;;27.34;33.75;96926.88;5035732;28;20047;-78
2022/07/18 07:37:59;;;;;;;5.35;1.80;;;;;;;28.78;32.76;96924.72;5066763;28;20029;-78
2022/07/18 07:40:27;;;;;;;4.68;1.73;;;;;;;29.37;31.01;96910.22;5033001;28;20099;-78
2022/07/18 07:43:11;;;;;;;4.20;2.00;;;;;;;29.42;30.84;96912.97;5045921;28;20819;-77
2022/07/18 07:45:37;;;;;;;5.00;1.80;;;;;;;29.48;30.55;96911.94;5052160;28;20037;-78
2022/07/18 07:48:04;;;;;;;4.03;1.42;;;;;;;30.12;29.44;96915.44;5065884;28;20021;-78
2022/07/18 07:50:30;;;;;;;4.20;1.60;;;;;;;30.44;28.75;96915.25;5036368;28;20028;-78
2022/07/18 07:53:00;;;;;;;3.28;1.33;;;;;;;30.59;28.84;96909.03;5034063;28;20025;-78
2022/07/18 07:55:26;;;;;;;7.88;1.95;;;;;;;29.78;30.50;96913.19;5046782;28;20064;-76
2022/07/18 07:57:52;;;;;;;5.90;1.98;;;;;;;30.61;29.40;96907.66;5056275;28;20086;-78
2022/07/18 08:00:18;;;;;;;2.90;2.03;;;;;;;31.63;29.01;96915.72;5036407;28;20033;-78
2022/07/18 08:03:10;;;;;;;6.93;5.43;;;;;;;31.76;29.09;96913.47;5058911;28;20047;-79
2022/07/18 08:05:43;;;;;;;16.35;3.35;;;;;;;31.42;29.05;96908.69;5040062;28;20049;-78
2022/07/18 08:08:09;;;;;;;13.48;2.35;;;;;;;32.39;29.19;96902.81;5037294;28;20059;-76
2022/07/18 08:10:35;;;;;;;2.67;1.65;;;;;;;32.51;28.28;96907.94;5064459;28;20877;-78
2022/07/18 08:13:01;;;;;;;2.50;1.50;;;;;;;32.52;28.80;96912.28;5043557;28;20509;-78
2022/07/18 08:15:27;;;;;;;3.78;1.52;;;;;;;32.40;28.58;96902.53;5038378;28;20028;-79
2022/07/18 08:17:53;;;;;;;3.45;1.70;;;;;;;32.39;28.06;96909.09;5051753;28;20560;-79
2022/07/18 08:20:19;;;;;;;4.90;1.73;;;;;;;33.25;27.03;96905.94;5049834;28;20028;-79
2022/07/18 08:22:52;;;;;;;5.13;1.95;;;;;;;32.77;27.26;96908.56;5058093;28;20040;-77
2022/07/18 08:25:19;;;;;;;4.00;1.77;;;;;;;33.42;26.66;96905.50;5034243;28;20474;-79
2022/07/18 08:27:45;;;;;;;3.25;1.95;;;;;;;33.64;26.75;96902.28;5047917;28;20051;-76
2022/07/18 08:30:11;;;;;;;3.80;2.10;;;;;;;33.33;26.58;96905.28;5044240;28;20036;-75
2022/07/18 08:32:36;;;;;;;5.72;1.98;;;;;;;34.00;26.22;96908.94;5045096;28;20060;-75
2022/07/18 08:35:03;;;;;;;6.15;1.80;;;;;;;34.10;25.70;96913.41;5066156;28;20036;-77
2022/07/18 08:37:28;;;;;;;5.22;2.35;;;;;;;34.23;25.18;96906.41;5054516;28;20135;-78
2022/07/18 08:39:54;;;;;;;5.78;1.92;;;;;;;34.22;24.22;96907.53;5052671;28;20079;-77
2022/07/18 08:42:25;;;;;;;3.40;1.80;;;;;;;34.49;23.51;96906.84;5045303;28;20021;-76
2022/07/18 08:44:52;;;;;;;4.80;2.00;;;;;;;33.92;24.07;96909.53;5060720;28;20111;-77
2022/07/18 08:47:19;;;;;;;3.47;1.70;;;;;;;34.18;23.35;96903.78;5054369;28;20032;-79
2022/07/18 08:49:45;;;;;;;5.38;2.80;;;;;;;34.41;22.12;96904.81;5039008;28;20063;-76
2022/07/18 08:52:12;;;;;;;7.68;5.93;;;;;;;34.90;21.94;96898.81;5036957;28;20401;-79
2022/07/18 08:54:38;;;;;;;3.63;2.10;;;;;;;34.36;20.39;96900.22;5060114;28;20040;-78
2022/07/18 08:57:03;;;;;;;2.78;1.65;;;;;;;34.29;21.26;96902.50;5070931;28;20032;-77
2022/07/18 08:59:29;;;;;;;3.85;1.45;;;;;;;34.96;19.63;96899.53;5032845;28;20052;-77
2022/07/18 09:01:55;;;;;;;2.80;1.60;;;;;;;34.91;19.56;96899.63;5036160;28;20036;-77
2022/07/18 09:04:38;;;;;;;2.10;1.38;;;;;;;35.16;19.91;96895.66;5047780;28;20039;-77
2022/07/18 09:07:06;;;;;;;3.15;1.83;;;;;;;35.45;18.82;96897.31;5049036;28;20047;-78
2022/07/18 09:09:32;;;;;;;3.08;1.45;;;;;;;34.78;18.84;96898.50;5047017;28;20186;-77
2022/07/18 09:12:06;;;;;;;3.00;1.52;;;;;;;34.94;19.13;96908.06;5048813;28;20020;-77
2022/07/18 09:14:44;;;;;;;4.00;2.15;;;;;;;35.59;19.24;96900.91;5049611;28;20048;-77
2022/07/18 09:17:15;;;;;;;2.03;1.58;;;;;;;35.80;18.64;96904.03;5046461;28;20083;-76
2022/07/18 09:19:56;;;;;;;5.00;1.60;;;;;;;35.77;17.57;96897.22;5045292;28;20587;-77
2022/07/18 09:22:24;;;;;;;3.65;1.42;;;;;;;35.64;18.71;96906.25;5045900;28;20032;-77
2022/07/18 09:24:57;;;;;;;2.13;1.40;;;;;;;35.88;17.97;96898.66;5052832;28;20093;-77
2022/07/18 09:27:24;;;;;;;2.63;1.33;;;;;;;36.58;17.63;96896.56;5044176;28;20036;-77
2022/07/18 09:30:11;;;;;;;3.83;1.50;;;;;;;35.89;17.96;96902.19;5069649;28;20020;-78
2022/07/18 09:32:38;;;;;;;2.35;1.48;;;;;;;35.30;17.95;96906.63;5036395;28;20177;-79
2022/07/18 09:35:12;;;;;;;3.05;1.70;;;;;;;35.92;17.84;96895.28;5026372;28;20431;-78
2022/07/18 09:37:41;;;;;;;3.15;2.15;;;;;;;35.63;18.47;96899.97;5036595;28;20039;-76
2022/07/18 09:40:19;;;;;;;5.57;2.85;;;;;;;35.48;18.30;96896.69;5046354;28;20065;-78
2022/07/18 09:42:50;;;;;;;5.32;2.63;;;;;;;37.37;17.23;96889.63;5042664;28;20523;-77
2022/07/18 09:45:41;;;;;;;2.90;1.45;;;;;;;36.15;17.77;96902.44;5041864;28;20462;-77
2022/07/18 09:48:10;;;;;;;2.45;1.70;;;;;;;35.21;18.67;96902.97;5065712;28;20511;-76
2022/07/18 09:50:42;;;;;;;3.88;2.35;;;;;;;35.61;18.49;96896.72;5043277;28;20067;-76
2022/07/18 09:53:16;;;;;;;2.67;1.60;;;;;;;33.22;20.09;96898.34;5063126;28;20035;-77
2022/07/18 09:55:53;;;;;;;1.90;1.40;;;;;;;35.07;19.10;96892.81;5061679;28;20039;-76
2022/07/18 09:58:24;;;;;;;2.08;1.40;;;;;;;34.90;19.97;96898.00;5062214;28;20852;-77
2022/07/18 10:00:52;;;;;;;4.15;1.58;;;;;;;35.88;19.25;96897.81;5044203;28;20178;-77
2022/07/18 10:03:18;;;;;;;3.72;1.48;;;;;;;36.11;19.38;96893.25;5059720;28;20059;-76
2022/07/18 10:05:47;;;;;;;2.15;1.42;;;;;;;36.68;17.86;96898.25;5057130;28;20086;-76
2022/07/18 10:08:19;;;;;;;3.05;1.60;;;;;;;37.24;18.29;96891.34;5030636;28;20501;-78
2022/07/18 10:10:47;;;;;;;3.25;1.75;;;;;;;36.77;18.86;96894.44;5049387;28;20039;-78
2022/07/18 10:13:14;;;;;;;7.35;4.43;;;;;;;36.17;18.50;96902.97;5029450;28;20468;-78
2022/07/18 10:15:42;;;;;;;5.30;2.80;;;;;;;36.10;17.66;96897.09;5046094;28;20040;-77
2022/07/18 10:18:11;;;;;;;2.25;1.60;;;;;;;35.77;18.95;96893.69;5032696;28;20040;-77
2022/07/18 10:20:41;;;;;;;2.22;1.70;;;;;;;36.54;17.96;96890.91;5044000;28;20486;-78
2022/07/18 10:23:13;;;;;;;2.80;1.67;;;;;;;36.45;17.70;96887.25;5065489;28;20571;-78
2022/07/18 10:25:39;;;;;;;5.00;3.63;;;;;;;37.70;17.68;96887.38;5065924;28;20033;-78
2022/07/18 10:28:13;;;;;;;4.20;2.10;;;;;;;36.74;18.49;96886.84;5045821;28;20044;-77
2022/07/18 10:30:44;;;;;;;4.10;1.92;;;;;;;37.09;18.06;96891.75;5036393;28;20037;-77
2022/07/18 10:33:47;;;;;;;4.45;2.05;;;;;;;37.07;17.16;96886.59;5043033;28;20592;-79
2022/07/18 10:36:15;;;;;;;3.45;1.63;;;;;;;37.48;17.02;96891.00;5049215;28;20040;-78
2022/07/18 10:39:02;;;;;;;5.95;1.73;;;;;;;36.55;17.22;96888.97;5055673;28;20032;-79
2022/07/18 10:41:28;;;;;;;3.22;1.60;;;;;;;36.77;17.31;96888.97;5062240;28;20029;-76
2022/07/18 10:43:54;;;;;;;3.58;1.90;;;;;;;37.32;17.43;96884.28;5050312;28;20375;-75
2022/07/18 10:46:19;;;;;;;3.20;1.80;;;;;;;36.35;18.43;96877.38;5047619;28;20047;-78
2022/07/18 10:48:50;;;;;;;2.53;1.60;;;;;;;36.68;18.02;96881.81;5051688;28;20040;-78
2022/07/18 10:51:17;;;;;;;3.58;1.70;;;;;;;36.59;18.53;96881.75;5053306;28;20052;-76
2022/07/18 10:54:04;;;;;;;2.55;1.60;;;;;;;37.18;17.34;96876.97;5049915;28;20033;-78
2022/07/18 10:56:36;;;;;;;3.58;1.73;;;;;;;36.44;18.29;96874.69;5063007;28;20028;-79
2022/07/18 10:59:19;;;;;;;3.22;1.67;;;;;;;36.81;18.62;96875.44;5073347;28;20033;-78
2022/07/18 11:01:49;;;;;;;2.75;1.60;;;;;;;36.70;18.69;96874.91;5051431;28;20067;-76
2022/07/18 11:04:35;;;;;;;4.18;1.77;;;;;;;37.21;17.94;96876.31;5073046;28;20083;-75
2022/07/18 11:07:13;;;;;;;3.50;1.83;;;;;;;36.40;17.97;96867.41;5059689;28;20478;-76
2022/07/18 11:09:42;;;;;;;4.97;1.77;;;;;;;37.35;16.72;96868.00;5069000;28;20075;-78
2022/07/18 11:12:31;;;;;;;14.38;13.00;;;;;;;37.61;17.77;96867.31;5055460;28;20088;-80
2022/07/18 11:14:59;;;;;;;2.70;2.00;;;;;;;37.69;17.76;96867.31;5049673;28;20032;-78
2022/07/18 11:18:00;;;;;;;2.15;1.80;;;;;;;37.12;17.69;96872.72;5069827;28;20770;-78
2022/07/18 11:20:33;;;;;;;2.35;1.58;;;;;;;37.04;17.02;96862.53;5049345;28;20032;-78
2022/07/18 11:23:01;;;;;;;2.88;1.80;;;;;;;36.76;17.55;96870.91;5032783;28;20036;-79
2022/07/18 11:25:28;;;;;;;4.05;1.80;;;;;;;35.89;18.89;96870.16;5054810;28;20032;-79
2022/07/18 11:27:55;;;;;;;3.55;1.80;;;;;;;36.57;17.79;96862.06;5066456;28;20477;-79
2022/07/18 11:30:22;;;;;;;5.32;1.90;;;;;;;36.75;18.50;96862.97;5050769;28;20030;-78
2022/07/18 11:32:48;;;;;;;5.80;1.90;;;;;;;35.97;18.64;96870.53;5071988;28;20049;-76
2022/07/18 11:35:14;;;;;;;3.92;2.10;;;;;;;36.38;17.54;96858.66;5050646;28;20089;-78
2022/07/18 11:37:48;;;;;;;2.13;1.58;;;;;;;37.00;16.90;96858.81;5049205;28;20095;-79
2022/07/18 11:40:15;;;;;;;3.63;1.95;;;;;;;36.57;17.63;96862.06;5053489;28;20190;-79